Main page
METAR-TAF:

METAR-TAF

Airports :

Kuressaare Airport

Kuressaare, Estonia

latitude: 58-13-48N, longitude: 022-30-34E, elevation: 4 m

Current weather observation

The report was made 47 minutes ago, at 05:50 UTC
Wind 11 kt from the South/Southwest
Temperature -2°C
Humidity 93%
Pressure 1010 hPa
Visibility: 5000 m
Overcast at a height of 900 ft
light snow, mist

METAR: EEKE 230550Z 20011KT 5000 -SN BR OVC009 M02/M03 Q1010 R17/490194

Time: 08:37 (06:37 UTC)

Forecast

The report was made 37 minutes ago, at 06:00 UTC
Forecast valid from 23 at 07 UTC to 23 at 13 UTC
Wind 12 kt from the South/Southwest
Visibility: 6000 m
Broken clouds at a height of 600 ft
Overcast at a height of 1000 ft
Temporary
from 23 at 07 UTC to 23 at 13 UTC
Visibility: 1000 m
Broken clouds at a height of 400 ft
Broken clouds at a height of 1500 ft, Cumulonimbus.
heavy snow showers, mist

TAF: EEKE 230600Z 2307/2313 20012KT 6000 BKN006 OVC010 TEMPO 2307/2313 1000 +SHSN BR BKN004 BKN015CB

Weather observations and forecasts of more than 4000 airports (METAR and TAF reports).

The available stations are represented by yellow and red dots on the map.

Hover mouse over dot to see the name of the station.

Then click to see weather observations and forecasts.

To change the map : click on the green buttons with a black cross to zoom in, on the green button with a dash to zoom out, or on the green arrows for adjacent maps.


METAR-TAF: